createdAt,value
2019-05-30T00:04:29.005Z,8.40
2019-05-30T00:09:35.333Z,8.20
2019-05-30T00:14:41.583Z,8.30
2019-05-30T00:19:48.110Z,8.10
2019-05-30T00:24:55.903Z,7.90
2019-05-30T00:30:03.540Z,7.90
2019-05-30T00:35:09.271Z,7.70
2019-05-30T00:40:15.872Z,7.80
2019-05-30T00:45:21.582Z,7.80
2019-05-30T00:50:27.403Z,7.80
2019-05-30T00:55:34.259Z,7.70
2019-05-30T01:00:43.891Z,7.60
2019-05-30T01:05:47.621Z,7.70
2019-05-30T01:10:53.604Z,7.60
2019-05-30T01:16:01.037Z,7.60
2019-05-30T01:21:07.451Z,7.50
2019-05-30T01:26:13.402Z,7.60
2019-05-30T01:31:19.175Z,7.50
2019-05-30T01:36:24.733Z,7.10
2019-05-30T01:41:30.374Z,7.00
2019-05-30T01:46:36.251Z,7.00
2019-05-30T01:51:58.316Z,7.00
2019-05-30T01:57:23.707Z,7.10
2019-05-30T02:02:37.152Z,7.10
2019-05-30T02:07:54.023Z,7.10
2019-05-30T02:13:08.178Z,7.10
2019-05-30T02:18:43.937Z,7.00
2019-05-30T02:24:02.198Z,7.00
2019-05-30T02:29:12.692Z,7.10
2019-05-30T02:34:35.179Z,7.30
2019-05-30T02:39:46.580Z,7.50
2019-05-30T02:45:12.756Z,7.70
2019-05-30T02:50:31.258Z,7.80
2019-05-30T02:55:41.591Z,7.90
2019-05-30T03:00:51.680Z,8.00
2019-05-30T03:06:00.085Z,8.10
2019-05-30T03:11:15.543Z,8.10
2019-05-30T03:16:37.246Z,8.20
2019-05-30T03:21:50.201Z,8.30
2019-05-30T03:27:00.381Z,8.40
2019-05-30T03:33:00.251Z,8.50
2019-05-30T03:37:56.493Z,8.60
2019-05-30T04:01:10.161Z,8.80
2019-05-30T04:06:40.030Z,8.90
2019-05-30T04:11:53.883Z,9.10
2019-05-30T04:16:59.741Z,9.10
2019-05-30T04:22:07.214Z,9.20
2019-05-30T04:27:13.929Z,9.30
2019-05-30T04:32:20.924Z,9.50
2019-05-30T04:37:27.585Z,9.40
2019-05-30T04:42:32.893Z,9.50
2019-05-30T04:47:38.894Z,9.70
2019-05-30T04:52:44.551Z,9.80
2019-05-30T04:57:50.095Z,9.90
2019-05-30T05:02:55.983Z,9.90
2019-05-30T05:08:02.215Z,9.90
2019-05-30T05:13:08.196Z,10.10
2019-05-30T05:18:15.046Z,10.10
2019-05-30T05:23:21.435Z,10.10
2019-05-30T05:28:26.929Z,10.00
2019-05-30T05:33:32.607Z,10.40
2019-05-30T05:38:38.240Z,10.60
2019-05-30T05:43:44.455Z,10.80
2019-05-30T05:48:50.759Z,10.80
2019-05-30T05:53:57.118Z,11.00
2019-05-30T05:59:03.412Z,10.80
2019-05-30T06:04:13.529Z,10.70
2019-05-30T06:09:18.347Z,11.00
2019-05-30T06:14:24.179Z,11.10
2019-05-30T06:19:45.432Z,11.30
2019-05-30T06:24:39.409Z,11.30
2019-05-30T06:29:45.321Z,11.40
2019-05-30T06:34:51.040Z,11.50
2019-05-30T06:39:58.932Z,11.50
2019-05-30T06:45:04.844Z,11.50
2019-05-30T06:50:10.312Z,11.30
2019-05-30T06:55:15.723Z,11.50
2019-05-30T07:00:21.741Z,11.90
2019-05-30T07:05:30.704Z,12.30
2019-05-30T07:10:37.723Z,12.40
2019-05-30T07:15:44.857Z,12.50
2019-05-30T07:20:50.321Z,12.60
2019-05-30T07:25:55.772Z,12.80
2019-05-30T07:31:01.568Z,13.20
2019-05-30T07:36:07.470Z,13.00
2019-05-30T07:41:13.007Z,12.70
2019-05-30T07:46:19.545Z,13.00
2019-05-30T07:51:26.394Z,13.30
2019-05-30T07:56:33.492Z,13.60
2019-05-30T08:01:40.274Z,13.60
2019-05-30T08:06:46.741Z,13.40
2019-05-30T08:11:53.377Z,13.60
2019-05-30T08:16:58.817Z,13.30
2019-05-30T08:22:04.851Z,13.50
2019-05-30T08:27:10.779Z,13.60
2019-05-30T08:32:17.136Z,14.00
2019-05-30T08:37:23.452Z,13.80
2019-05-30T08:42:29.827Z,14.00
2019-05-30T08:47:36.636Z,13.60
2019-05-30T08:52:43.591Z,13.70
2019-05-30T08:57:51.108Z,14.00
2019-05-30T09:02:57.291Z,14.90
2019-05-30T09:08:04.021Z,14.40
2019-05-30T09:13:09.681Z,14.00
2019-05-30T09:18:15.256Z,14.20
2019-05-30T09:23:20.803Z,14.90
2019-05-30T09:28:26.323Z,14.80
2019-05-30T09:33:31.962Z,14.50
2019-05-30T09:38:40.598Z,14.40
2019-05-30T09:43:46.402Z,14.30
2019-05-30T09:48:53.022Z,14.70
2019-05-30T09:53:59.383Z,14.70
2019-05-30T09:59:06.522Z,14.80
2019-05-30T10:04:12.317Z,15.30
2019-05-30T10:09:17.949Z,15.30
2019-05-30T10:14:24.287Z,14.90
2019-05-30T10:19:30.711Z,15.10
2019-05-30T10:24:37.460Z,15.50
2019-05-30T10:29:45.879Z,15.80
2019-05-30T10:34:53.946Z,15.50
2019-05-30T10:40:00.152Z,16.10
2019-05-30T10:45:06.738Z,16.30
2019-05-30T10:50:12.569Z,16.00
2019-05-30T10:55:19.017Z,16.60
2019-05-30T11:00:43.399Z,17.50
2019-05-30T11:05:57.241Z,17.60
2019-05-30T11:11:02.830Z,17.90
2019-05-30T11:16:08.662Z,17.90
2019-05-30T11:21:14.334Z,17.30
2019-05-30T11:26:19.896Z,17.90
2019-05-30T11:31:25.812Z,17.80
2019-05-30T11:36:32.252Z,18.00
2019-05-30T11:41:38.271Z,18.30
2019-05-30T11:46:43.774Z,18.90
2019-05-30T11:51:49.953Z,20.40
2019-05-30T11:56:56.149Z,21.00
2019-05-30T12:02:01.722Z,21.50
2019-05-30T12:07:07.121Z,21.90
2019-05-30T12:12:12.554Z,23.20
2019-05-30T12:17:19.508Z,23.80
2019-05-30T12:22:25.035Z,24.30
2019-05-30T12:27:31.367Z,26.30
2019-05-30T12:32:36.949Z,27.00
2019-05-30T12:37:54.345Z,27.00
2019-05-30T12:42:53.896Z,26.90
2019-05-30T12:47:59.472Z,26.50
2019-05-30T12:53:05.910Z,25.80
2019-05-30T12:58:12.461Z,26.40
2019-05-30T13:03:19.000Z,25.40
2019-05-30T13:08:24.838Z,26.20
2019-05-30T13:13:30.497Z,26.50
2019-05-30T13:18:36.055Z,25.80
2019-05-30T13:23:41.748Z,26.80
2019-05-30T13:28:48.316Z,26.60
2019-05-30T13:33:54.957Z,27.60
2019-05-30T13:39:01.310Z,28.70
2019-05-30T13:44:09.716Z,28.50
2019-05-30T13:49:16.195Z,29.20
2019-05-30T13:54:23.164Z,28.40
2019-05-30T13:59:29.782Z,28.70
2019-05-30T14:04:35.424Z,28.90
2019-05-30T14:09:40.978Z,28.80
2019-05-30T14:14:47.847Z,28.40
2019-05-30T14:19:53.492Z,29.20
2019-05-30T14:25:01.261Z,31.00
2019-05-30T14:30:07.247Z,31.20
2019-05-30T14:35:13.915Z,31.00
2019-05-30T14:40:19.846Z,31.00
2019-05-30T14:45:28.195Z,28.30
2019-05-30T14:50:35.069Z,26.70
2019-05-30T14:55:41.915Z,26.20
2019-05-30T15:00:49.092Z,26.50
2019-05-30T15:05:55.920Z,26.00
2019-05-30T15:11:01.350Z,26.50
2019-05-30T15:16:06.927Z,28.20
2019-05-30T15:21:12.629Z,28.40
2019-05-30T15:26:18.059Z,28.20
2019-05-30T15:31:24.189Z,29.60
2019-05-30T15:36:30.546Z,29.10
2019-05-30T15:41:36.346Z,27.90
2019-05-30T15:46:42.328Z,27.90
2019-05-30T15:51:49.458Z,28.50
2019-05-30T15:57:04.000Z,28.30
2019-05-30T16:02:12.221Z,25.70
2019-05-30T16:07:23.844Z,24.10
2019-05-30T16:12:30.522Z,23.70
2019-05-30T16:17:38.910Z,22.80
2019-05-30T16:22:46.387Z,22.80
2019-05-30T16:27:55.442Z,27.90
2019-05-30T16:33:03.291Z,29.80
2019-05-30T16:38:18.161Z,27.90
2019-05-30T16:43:26.615Z,27.60
2019-05-30T16:48:32.755Z,23.80
2019-05-30T16:53:39.788Z,22.30
2019-05-30T16:58:48.534Z,21.50
2019-05-30T17:03:55.914Z,21.20
2019-05-30T17:09:01.537Z,21.00
2019-05-30T17:14:07.887Z,20.80
2019-05-30T17:19:14.595Z,20.60
2019-05-30T17:24:27.263Z,20.50
2019-05-30T17:29:34.009Z,20.70
2019-05-30T17:34:40.164Z,21.00
2019-05-30T17:39:47.211Z,20.90
2019-05-30T17:44:55.571Z,20.50
2019-05-30T17:50:05.404Z,20.10
2019-05-30T17:55:11.326Z,19.60
2019-05-30T18:00:39.481Z,19.30
2019-05-30T18:05:49.024Z,19.20
2019-05-30T18:11:02.868Z,18.90
2019-05-30T18:16:13.752Z,18.50
2019-05-30T18:21:21.370Z,18.50
2019-05-30T18:26:28.213Z,18.40
2019-05-30T18:31:40.273Z,18.20
2019-05-30T18:36:52.777Z,18.00
2019-05-30T18:42:01.226Z,17.60
2019-05-30T18:47:12.674Z,17.20
2019-05-30T18:52:21.842Z,16.80
2019-05-30T18:57:32.839Z,16.40
2019-05-30T19:02:44.564Z,16.20
2019-05-30T19:08:04.596Z,15.90
2019-05-30T19:13:14.337Z,15.70
2019-05-30T19:18:25.379Z,15.50
2019-05-30T19:24:03.466Z,15.40
2019-05-30T19:29:12.614Z,15.30
2019-05-30T19:34:21.582Z,15.50
2019-05-30T19:39:33.571Z,15.60
2019-05-30T19:44:42.601Z,15.70
2019-05-30T19:49:49.960Z,15.60
2019-05-30T19:54:59.722Z,15.50
2019-05-30T20:00:07.000Z,15.60
2019-05-30T20:05:14.976Z,15.50
2019-05-30T20:10:26.093Z,15.30
2019-05-30T20:15:33.343Z,15.30
2019-05-30T20:20:54.072Z,15.20
2019-05-30T20:25:48.488Z,15.10
2019-05-30T20:30:54.834Z,15.20
2019-05-30T20:36:01.967Z,15.20
2019-05-30T20:41:10.894Z,15.10
2019-05-30T20:46:23.211Z,15.00
2019-05-30T20:51:28.047Z,15.00
2019-05-30T20:56:35.310Z,15.00
2019-05-30T21:01:42.172Z,15.00
2019-05-30T21:06:50.344Z,15.00
2019-05-30T21:11:59.269Z,14.80
2019-05-30T21:17:06.132Z,14.80
2019-05-30T21:22:11.770Z,14.70
2019-05-30T21:27:17.583Z,14.70
2019-05-30T21:32:24.836Z,14.60
2019-05-30T21:37:31.943Z,14.50
2019-05-30T21:42:56.286Z,14.30
2019-05-30T21:47:48.831Z,14.30
2019-05-30T21:52:59.367Z,14.20
2019-05-30T21:58:11.843Z,14.10
2019-05-30T22:03:25.313Z,14.20
2019-05-30T22:08:39.613Z,14.00
2019-05-30T22:13:49.811Z,14.00
2019-05-30T22:18:58.419Z,14.00
2019-05-30T22:24:08.479Z,13.90
2019-05-30T22:29:15.859Z,13.80
2019-05-30T22:34:22.739Z,13.70
2019-05-30T22:39:35.287Z,13.80
2019-05-30T22:44:44.363Z,14.00
2019-05-30T22:49:52.829Z,14.00
2019-05-30T22:55:04.588Z,13.90
2019-05-30T23:00:13.420Z,13.90
2019-05-30T23:05:23.054Z,13.90
2019-05-30T23:10:30.939Z,13.80
2019-05-30T23:15:40.005Z,13.70
2019-05-30T23:20:52.759Z,13.80
2019-05-30T23:26:00.991Z,13.90
2019-05-30T23:31:08.045Z,13.80
2019-05-30T23:36:16.582Z,13.70
2019-05-30T23:41:22.416Z,13.60
2019-05-30T23:46:29.270Z,13.60
2019-05-30T23:51:39.856Z,13.50
2019-05-30T23:56:52.370Z,13.50
